createdAt,value
2023-04-21T00:02:19.790Z,32.38
2023-04-21T00:04:46.595Z,35.70
2023-04-21T00:07:14.727Z,35.42
2023-04-21T00:09:41.885Z,32.80
2023-04-21T00:12:08.622Z,32.05
2023-04-21T00:14:35.214Z,36.60
2023-04-21T00:17:01.845Z,33.17
2023-04-21T00:19:29.621Z,31.02
2023-04-21T00:21:58.817Z,34.20
2023-04-21T00:24:26.080Z,31.35
2023-04-21T00:26:52.765Z,35.78
2023-04-21T00:29:19.596Z,35.75
2023-04-21T00:31:46.545Z,33.85
2023-04-21T00:34:13.172Z,36.20
2023-04-21T00:36:39.756Z,31.95
2023-04-21T00:39:06.400Z,34.38
2023-04-21T00:41:35.238Z,34.50
2023-04-21T00:44:06.816Z,34.28
2023-04-21T00:46:34.514Z,32.90
2023-04-21T00:49:05.452Z,34.05
2023-04-21T00:51:34.179Z,32.13
2023-04-21T00:54:03.804Z,34.63
2023-04-21T00:56:32.631Z,34.00
2023-04-21T00:59:00.407Z,35.40
2023-04-21T01:01:29.793Z,37.10
2023-04-21T01:04:00.978Z,34.72
2023-04-21T01:06:34.901Z,33.38
2023-04-21T01:09:02.029Z,34.65
2023-04-21T01:11:28.650Z,34.65
2023-04-21T01:13:55.948Z,37.45
2023-04-21T01:16:24.032Z,39.28
2023-04-21T01:18:53.282Z,36.35
2023-04-21T01:21:21.618Z,38.22
2023-04-21T01:23:48.502Z,37.95
2023-04-21T01:26:19.046Z,37.20
2023-04-21T01:28:47.624Z,36.03
2023-04-21T01:31:15.185Z,32.88
2023-04-21T01:33:42.169Z,33.92
2023-04-21T01:36:09.813Z,33.38
2023-04-21T01:38:40.956Z,35.38
2023-04-21T01:41:08.678Z,34.33
2023-04-21T01:43:35.548Z,34.83
2023-04-21T01:46:02.314Z,35.67
2023-04-21T01:48:29.046Z,35.25
2023-04-21T01:50:55.672Z,31.60
2023-04-21T01:53:22.379Z,30.95
2023-04-21T01:55:49.023Z,33.22
2023-04-21T01:58:15.675Z,37.17
2023-04-21T02:00:42.228Z,31.67
2023-04-21T02:03:08.967Z,32.20
2023-04-21T02:05:35.617Z,35.30
2023-04-21T02:08:02.238Z,34.72
2023-04-21T02:10:28.850Z,31.50
2023-04-21T02:12:55.583Z,34.65
2023-04-21T02:15:22.191Z,36.03
2023-04-21T02:17:48.811Z,35.25
2023-04-21T02:20:15.423Z,34.80
2023-04-21T02:22:42.105Z,37.00
2023-04-21T02:25:09.029Z,35.25
2023-04-21T02:27:35.718Z,41.30
2023-04-21T02:30:02.482Z,36.05
2023-04-21T02:32:29.360Z,38.75
2023-04-21T02:34:56.191Z,40.08
2023-04-21T02:37:22.914Z,36.63
2023-04-21T02:39:49.546Z,34.47
2023-04-21T02:42:16.124Z,33.95
2023-04-21T02:44:43.233Z,35.47
2023-04-21T02:47:09.877Z,36.60
2023-04-21T02:49:41.293Z,37.30
2023-04-21T02:52:07.897Z,33.90
2023-04-21T02:54:34.544Z,34.05
2023-04-21T02:57:01.963Z,39.45
2023-04-21T02:59:29.029Z,33.38
2023-04-21T03:01:55.734Z,35.88
2023-04-21T03:04:24.280Z,36.60
2023-04-21T03:06:52.101Z,33.20
2023-04-21T03:09:19.090Z,37.33
2023-04-21T03:11:45.915Z,36.92
2023-04-21T03:14:12.559Z,38.58
2023-04-21T03:16:39.187Z,39.95
2023-04-21T03:19:05.831Z,36.70
2023-04-21T03:21:32.531Z,37.35
2023-04-21T03:23:59.168Z,39.72
2023-04-21T03:26:25.875Z,40.00
2023-04-21T03:28:52.492Z,36.90
2023-04-21T03:31:19.136Z,39.80
2023-04-21T03:33:45.887Z,37.55
2023-04-21T03:36:12.499Z,36.03
2023-04-21T03:38:39.155Z,39.28
2023-04-21T03:41:05.883Z,37.97
2023-04-21T03:43:32.484Z,38.00
2023-04-21T03:45:59.227Z,38.97
2023-04-21T03:48:27.498Z,35.80
2023-04-21T03:50:54.085Z,35.25
2023-04-21T03:53:20.780Z,36.20
2023-04-21T03:55:50.094Z,35.03
2023-04-21T03:58:17.133Z,33.13
2023-04-21T04:00:43.769Z,38.75
2023-04-21T04:03:10.432Z,35.85
2023-04-21T04:05:37.270Z,38.00
2023-04-21T04:08:04.092Z,38.72
2023-04-21T04:10:30.736Z,39.67
2023-04-21T04:12:57.317Z,39.42
2023-04-21T04:15:23.893Z,38.60
2023-04-21T04:17:50.796Z,40.60
2023-04-21T04:20:17.440Z,43.38
2023-04-21T04:22:44.070Z,43.08
2023-04-21T04:25:12.764Z,39.58
2023-04-21T04:27:39.450Z,38.22
2023-04-21T04:30:07.010Z,35.10
2023-04-21T04:32:34.232Z,38.88
2023-04-21T04:35:00.825Z,41.20
2023-04-21T04:37:28.077Z,43.72
2023-04-21T04:39:54.739Z,36.88
2023-04-21T04:42:21.334Z,39.63
2023-04-21T04:44:48.062Z,39.05
2023-04-21T04:47:14.837Z,38.28
2023-04-21T04:49:41.448Z,38.75
2023-04-21T04:52:08.149Z,38.70
2023-04-21T04:54:34.771Z,38.45
2023-04-21T04:57:02.362Z,39.92
2023-04-21T04:59:30.448Z,41.22
2023-04-21T05:01:57.564Z,37.97
2023-04-21T05:04:24.548Z,41.90
2023-04-21T05:06:52.046Z,38.85
2023-04-21T05:09:18.672Z,40.20
2023-04-21T05:11:45.293Z,38.20
2023-04-21T05:14:11.977Z,37.72
2023-04-21T05:16:38.658Z,39.63
2023-04-21T05:19:05.522Z,38.00
2023-04-21T05:21:33.358Z,36.97
2023-04-21T05:24:00.872Z,38.13
2023-04-21T05:26:28.971Z,39.30
2023-04-21T05:28:56.648Z,36.88
2023-04-21T05:31:24.803Z,38.50
2023-04-21T05:33:51.794Z,32.80
2023-04-21T05:36:20.120Z,38.90
2023-04-21T05:38:46.865Z,38.65
2023-04-21T05:41:13.451Z,33.97
2023-04-21T05:43:40.050Z,34.13
2023-04-21T05:46:10.911Z,31.25
2023-04-21T05:48:37.554Z,29.45
2023-04-21T05:51:11.405Z,28.20
2023-04-21T05:56:06.256Z,25.33
2023-04-21T05:58:34.081Z,24.67
2023-04-21T06:01:00.686Z,25.42
2023-04-21T06:03:27.442Z,25.85
2023-04-21T06:05:55.338Z,25.65
2023-04-21T06:08:22.797Z,26.25
2023-04-21T06:10:49.795Z,25.20
2023-04-21T06:13:16.841Z,28.52
2023-04-21T06:15:43.902Z,27.73
2023-04-21T06:18:11.109Z,26.80
2023-04-21T06:20:37.825Z,27.05
2023-04-21T06:23:05.004Z,26.77
2023-04-21T06:25:32.018Z,26.92
2023-04-21T06:27:59.039Z,25.02
2023-04-21T06:30:25.658Z,26.38
2023-04-21T06:32:52.355Z,24.40
2023-04-21T06:35:20.388Z,24.83
2023-04-21T06:37:47.461Z,22.48
2023-04-21T06:40:16.033Z,24.75
2023-04-21T06:42:42.900Z,25.10
2023-04-21T06:45:10.330Z,25.38
2023-04-21T06:47:37.530Z,24.55
2023-04-21T06:50:04.781Z,24.05
2023-04-21T06:52:31.983Z,28.38
2023-04-21T06:54:59.044Z,25.80
2023-04-21T06:57:26.156Z,27.60
2023-04-21T06:59:53.408Z,27.15
2023-04-21T07:02:20.594Z,24.98
2023-04-21T07:04:47.716Z,23.25
2023-04-21T07:07:14.897Z,27.17
2023-04-21T07:09:41.983Z,26.70
2023-04-21T07:12:09.019Z,24.98
2023-04-21T07:14:36.067Z,27.13
2023-04-21T07:17:03.322Z,27.55
2023-04-21T07:19:30.484Z,28.25
2023-04-21T07:21:58.261Z,25.73
2023-04-21T07:24:25.343Z,25.35
2023-04-21T07:26:52.359Z,29.88
2023-04-21T07:29:19.603Z,27.45
2023-04-21T07:31:48.157Z,24.95
2023-04-21T07:34:15.402Z,23.77
2023-04-21T07:36:42.420Z,27.40
2023-04-21T07:39:09.471Z,26.90
2023-04-21T07:41:36.193Z,25.55
2023-04-21T07:44:02.858Z,22.05
2023-04-21T07:46:32.756Z,22.83
2023-04-21T07:49:02.786Z,21.05
2023-04-21T07:51:31.631Z,21.73
2023-04-21T07:53:58.284Z,21.35
2023-04-21T07:56:24.876Z,21.33
2023-04-21T07:58:51.519Z,20.10
2023-04-21T08:01:18.190Z,21.60
2023-04-21T08:03:45.009Z,19.90
2023-04-21T08:06:12.213Z,22.55
2023-04-21T08:08:38.961Z,21.90
2023-04-21T08:11:05.669Z,20.02
2023-04-21T08:13:32.437Z,20.35
2023-04-21T08:15:59.109Z,19.65
2023-04-21T08:18:25.792Z,20.00
2023-04-21T08:20:52.704Z,19.63
2023-04-21T08:23:19.970Z,18.50
2023-04-21T08:25:46.681Z,18.75
2023-04-21T08:28:15.442Z,20.48
2023-04-21T08:30:42.820Z,20.08
2023-04-21T08:33:13.552Z,19.63
2023-04-21T08:35:55.049Z,20.67
2023-04-21T08:38:28.402Z,20.25
2023-04-21T08:40:56.506Z,22.02
2023-04-21T08:43:23.520Z,20.02
2023-04-21T08:45:51.529Z,19.13
2023-04-21T08:48:20.094Z,18.70
2023-04-21T08:50:47.691Z,18.58
2023-04-21T08:53:14.753Z,19.30
2023-04-21T08:55:42.542Z,19.48
2023-04-21T08:58:09.564Z,19.92
2023-04-21T09:00:36.978Z,20.25
2023-04-21T09:03:10.736Z,18.38
2023-04-21T09:05:43.838Z,17.98
2023-04-21T09:08:12.311Z,19.02
2023-04-21T09:10:46.505Z,20.88
2023-04-21T09:13:13.688Z,16.58
2023-04-21T09:15:41.710Z,18.55
2023-04-21T09:18:14.830Z,19.20
2023-04-21T09:20:43.843Z,17.37
2023-04-21T09:23:11.371Z,18.92
2023-04-21T09:25:42.539Z,14.15
2023-04-21T09:28:10.451Z,16.33
2023-04-21T09:30:38.637Z,16.02
2023-04-21T09:33:13.231Z,16.80
2023-04-21T09:35:43.501Z,16.30
2023-04-21T09:38:11.915Z,18.27
2023-04-21T09:40:40.295Z,16.40
2023-04-21T09:43:07.919Z,19.45
2023-04-21T09:45:40.103Z,19.05
2023-04-21T09:48:09.937Z,20.83
2023-04-21T09:53:12.049Z,20.25
2023-04-21T09:55:41.590Z,20.02
2023-04-21T09:58:10.554Z,17.30
2023-04-21T10:00:39.740Z,18.58
2023-04-21T10:03:10.512Z,16.95
2023-04-21T10:05:42.186Z,17.98
2023-04-21T10:08:11.717Z,18.52
2023-04-21T10:10:39.557Z,21.00
2023-04-21T10:13:06.690Z,17.23
2023-04-21T10:15:35.674Z,16.20
2023-04-21T10:18:16.245Z,19.05
2023-04-21T10:21:02.002Z,18.73
2023-04-21T10:23:48.651Z,19.65
2023-04-21T10:26:15.672Z,17.33
2023-04-21T10:28:43.734Z,18.30
2023-04-21T10:31:20.203Z,16.52
2023-04-21T10:34:06.238Z,16.15
2023-04-21T10:36:35.075Z,16.15
2023-04-21T10:39:03.840Z,17.08
2023-04-21T10:41:31.774Z,16.98
2023-04-21T10:44:19.222Z,15.65
2023-04-21T10:46:47.622Z,16.33
2023-04-21T10:49:24.997Z,16.33
2023-04-21T10:52:02.386Z,21.67
2023-04-21T10:54:41.640Z,21.25
2023-04-21T10:57:10.072Z,24.17
2023-04-21T10:59:37.131Z,20.42
2023-04-21T11:02:06.739Z,20.42
2023-04-21T11:04:34.522Z,21.65
2023-04-21T11:07:08.906Z,21.13
2023-04-21T11:09:36.608Z,23.10
2023-04-21T11:12:04.946Z,21.38
2023-04-21T11:14:33.070Z,22.65
2023-04-21T11:17:01.078Z,22.17
2023-04-21T11:19:28.537Z,21.25
2023-04-21T11:21:55.764Z,20.25
2023-04-21T11:24:22.901Z,20.70
2023-04-21T11:26:50.161Z,22.13
2023-04-21T11:29:17.623Z,23.42
2023-04-21T11:31:46.495Z,21.67
2023-04-21T11:34:15.520Z,21.25
2023-04-21T11:36:46.462Z,20.58
2023-04-21T11:39:21.383Z,25.77
2023-04-21T11:41:50.073Z,18.23
2023-04-21T11:44:35.419Z,23.73
2023-04-21T11:47:13.111Z,21.77
2023-04-21T11:49:47.389Z,21.10
2023-04-21T11:52:42.101Z,20.88
2023-04-21T11:55:15.316Z,21.02
2023-04-21T11:57:42.446Z,22.33
2023-04-21T12:00:14.416Z,20.00
2023-04-21T12:02:41.434Z,20.25
2023-04-21T12:05:13.368Z,19.63
2023-04-21T12:07:44.611Z,20.67
2023-04-21T12:10:11.827Z,18.45
2023-04-21T12:12:39.667Z,17.30
2023-04-21T12:15:07.580Z,19.55
2023-04-21T12:17:49.936Z,18.40
2023-04-21T12:20:17.983Z,21.23
2023-04-21T12:22:45.263Z,20.35
2023-04-21T12:25:12.461Z,18.48
2023-04-21T12:27:48.180Z,18.20
2023-04-21T12:30:15.487Z,23.10
2023-04-21T12:32:42.599Z,18.42
2023-04-21T12:35:10.048Z,21.35
2023-04-21T12:37:38.462Z,19.80
2023-04-21T12:40:05.797Z,21.02
2023-04-21T12:42:34.707Z,17.65
2023-04-21T12:45:03.272Z,16.75
2023-04-21T12:47:30.639Z,17.75
2023-04-21T12:49:58.671Z,16.30
2023-04-21T12:52:26.153Z,16.73
2023-04-21T12:54:53.179Z,15.07
2023-04-21T12:57:20.480Z,11.32
2023-04-21T12:59:47.591Z,10.82
2023-04-21T13:02:14.802Z,15.00
2023-04-21T13:04:42.513Z,12.43
2023-04-21T13:07:10.541Z,10.27
2023-04-21T13:09:37.698Z,9.77
2023-04-21T13:12:04.871Z,9.05
2023-04-21T13:14:32.386Z,7.07
2023-04-21T13:16:59.847Z,7.00
2023-04-21T13:19:28.575Z,7.13
2023-04-21T13:21:56.359Z,6.85
2023-04-21T13:24:23.420Z,6.25
2023-04-21T13:26:50.603Z,4.88
2023-04-21T13:29:17.690Z,6.68
2023-04-21T13:31:46.630Z,7.20
2023-04-21T13:34:13.718Z,5.10
2023-04-21T13:36:41.152Z,7.63
2023-04-21T13:39:11.751Z,4.15
2023-04-21T13:41:38.984Z,5.85
2023-04-21T13:44:06.231Z,6.22
2023-04-21T13:46:33.360Z,4.75
2023-04-21T13:49:00.730Z,6.63
2023-04-21T13:51:28.025Z,5.10
2023-04-21T13:53:55.268Z,5.18
2023-04-21T13:56:22.569Z,5.75
2023-04-21T13:58:49.808Z,6.55
2023-04-21T14:01:18.049Z,7.72
2023-04-21T14:03:47.099Z,4.72
2023-04-21T14:06:14.380Z,4.82
2023-04-21T14:08:41.725Z,4.90
2023-04-21T14:11:08.837Z,7.57
2023-04-21T14:13:44.680Z,6.43
2023-04-21T14:16:19.334Z,8.07
2023-04-21T14:18:47.384Z,6.68
2023-04-21T14:21:14.559Z,6.90
2023-04-21T14:23:41.580Z,6.43
2023-04-21T14:26:08.768Z,6.25
2023-04-21T14:28:35.887Z,7.25
2023-04-21T14:31:04.187Z,5.93
2023-04-21T14:33:33.306Z,5.80
2023-04-21T14:36:00.721Z,6.13
2023-04-21T14:38:29.443Z,6.10
2023-04-21T14:40:56.513Z,6.03
2023-04-21T14:43:23.737Z,5.22
2023-04-21T14:45:51.014Z,6.95
2023-04-21T14:48:18.235Z,4.35
2023-04-21T14:50:45.384Z,4.47
2023-04-21T14:53:12.453Z,4.82
2023-04-21T14:55:39.618Z,5.50
2023-04-21T14:58:07.294Z,4.35
2023-04-21T15:00:36.339Z,4.85
2023-04-21T15:03:04.090Z,4.03
2023-04-21T15:05:32.501Z,3.30
2023-04-21T15:07:59.725Z,2.95
2023-04-21T15:10:26.787Z,3.50
2023-04-21T15:12:53.854Z,3.90
2023-04-21T15:15:20.970Z,3.55
2023-04-21T15:17:48.391Z,2.47
2023-04-21T15:20:15.660Z,5.90
2023-04-21T15:22:42.780Z,3.95
2023-04-21T15:25:09.960Z,5.80
2023-04-21T15:27:37.178Z,3.83
2023-04-21T15:30:05.028Z,4.38
2023-04-21T15:32:32.280Z,3.35
2023-04-21T15:35:00.993Z,8.23
2023-04-21T15:37:28.111Z,4.53
2023-04-21T15:39:55.357Z,3.33
2023-04-21T15:42:23.451Z,4.88
2023-04-21T15:44:51.512Z,6.05
2023-04-21T15:47:18.620Z,5.10
2023-04-21T15:49:45.898Z,6.10
2023-04-21T15:52:13.868Z,4.28
2023-04-21T15:54:41.067Z,5.97
2023-04-21T15:57:08.216Z,6.57
2023-04-21T15:59:35.336Z,3.40
2023-04-21T16:02:02.550Z,5.07
2023-04-21T16:04:29.970Z,3.28
2023-04-21T16:06:57.233Z,3.50
2023-04-21T16:09:24.344Z,5.72
2023-04-21T16:11:51.864Z,4.60
2023-04-21T16:14:19.277Z,5.78
2023-04-21T16:16:46.535Z,5.65
2023-04-21T16:19:13.765Z,5.28
2023-04-21T16:21:41.957Z,7.20
2023-04-21T16:24:09.587Z,4.47
2023-04-21T16:26:36.919Z,9.55
2023-04-21T16:29:04.196Z,5.82
2023-04-21T16:31:31.624Z,5.60
2023-04-21T16:33:59.906Z,6.45
2023-04-21T16:36:32.250Z,3.50
2023-04-21T16:38:59.395Z,4.55
2023-04-21T16:41:26.713Z,6.80
2023-04-21T16:43:53.847Z,4.28
2023-04-21T16:46:21.119Z,4.18
2023-04-21T16:48:48.241Z,4.40
2023-04-21T16:51:15.440Z,3.08
2023-04-21T16:53:42.549Z,4.32
2023-04-21T16:56:09.978Z,5.07
2023-04-21T16:58:37.542Z,5.50
2023-04-21T17:01:05.136Z,4.90
2023-04-21T17:03:32.456Z,3.60
2023-04-21T17:05:59.710Z,9.43
2023-04-21T17:08:26.765Z,3.83
2023-04-21T17:10:55.390Z,6.30
2023-04-21T17:13:22.429Z,5.70
2023-04-21T17:15:49.593Z,6.50
2023-04-21T17:18:16.698Z,8.70
2023-04-21T17:20:43.793Z,5.53
2023-04-21T17:23:10.795Z,6.80
2023-04-21T17:25:38.160Z,4.82
2023-04-21T17:28:05.922Z,4.70
2023-04-21T17:30:35.595Z,6.15
2023-04-21T17:33:15.234Z,6.05
2023-04-21T17:35:55.743Z,6.40
2023-04-21T17:38:29.108Z,5.68
2023-04-21T17:40:56.352Z,5.38
2023-04-21T17:43:23.440Z,6.03
2023-04-21T17:45:51.266Z,7.75
2023-04-21T17:48:18.570Z,7.07
2023-04-21T17:50:45.745Z,6.07
2023-04-21T17:53:12.751Z,5.82
2023-04-21T17:55:40.261Z,4.88
2023-04-21T17:58:10.144Z,9.63
2023-04-21T18:00:38.791Z,7.22
2023-04-21T18:03:06.416Z,7.88
2023-04-21T18:05:34.326Z,8.20
2023-04-21T18:08:02.032Z,7.10
2023-04-21T18:10:29.893Z,6.15
2023-04-21T18:12:57.418Z,7.85
2023-04-21T18:15:24.774Z,7.97
2023-04-21T18:17:53.028Z,9.27
2023-04-21T18:20:20.367Z,8.55
2023-04-21T18:22:48.438Z,11.35
2023-04-21T18:25:17.385Z,7.05
2023-04-21T18:27:47.423Z,5.47
2023-04-21T18:30:14.549Z,8.95
2023-04-21T18:32:41.688Z,6.05
2023-04-21T18:35:08.944Z,9.43
2023-04-21T18:37:36.048Z,7.45
2023-04-21T18:40:05.496Z,7.85
2023-04-21T18:42:32.597Z,11.48
2023-04-21T18:45:02.190Z,9.77
2023-04-21T18:47:30.926Z,12.75
2023-04-21T18:49:58.273Z,11.68
2023-04-21T18:52:25.506Z,10.93
2023-04-21T18:54:52.515Z,12.60
2023-04-21T18:57:19.578Z,8.68
2023-04-21T18:59:46.592Z,11.68
2023-04-21T19:02:14.190Z,8.93
2023-04-21T19:04:43.573Z,8.40
2023-04-21T19:07:11.387Z,12.52
2023-04-21T19:09:38.692Z,8.98
2023-04-21T19:12:05.924Z,8.60
2023-04-21T19:14:45.650Z,13.48
2023-04-21T19:17:14.112Z,10.15
2023-04-21T19:19:41.619Z,9.60
2023-04-21T19:22:08.773Z,10.48
2023-04-21T19:24:36.328Z,5.93
2023-04-21T19:27:05.378Z,6.15
2023-04-21T19:29:32.974Z,5.85
2023-04-21T19:32:00.555Z,4.32
2023-04-21T19:34:27.667Z,4.45
2023-04-21T19:36:54.699Z,3.53
2023-04-21T19:39:21.811Z,3.85
2023-04-21T19:41:48.842Z,3.03
2023-04-21T19:44:15.927Z,2.03
2023-04-21T19:46:43.349Z,1.70
2023-04-21T19:49:13.986Z,1.10
2023-04-21T19:51:41.312Z,2.15
2023-04-21T19:54:11.938Z,5.82
2023-04-21T19:56:39.470Z,2.17
2023-04-21T19:59:06.537Z,3.53
2023-04-21T20:01:34.472Z,1.67
2023-04-21T20:04:03.365Z,1.88
2023-04-21T20:06:31.954Z,1.58
2023-04-21T20:08:59.032Z,2.83
2023-04-21T20:11:28.791Z,1.42
2023-04-21T20:13:56.279Z,1.35
2023-04-21T20:16:23.708Z,2.05
2023-04-21T20:18:50.753Z,3.22
2023-04-21T20:21:17.757Z,3.95
2023-04-21T20:23:44.807Z,1.65
2023-04-21T20:26:12.048Z,1.25
2023-04-21T20:28:39.146Z,1.30
2023-04-21T20:31:06.281Z,3.05
2023-04-21T20:33:33.367Z,4.15
2023-04-21T20:36:07.076Z,1.95
2023-04-21T20:38:34.813Z,4.80
2023-04-21T20:41:02.320Z,3.72
2023-04-21T20:43:32.933Z,4.53
2023-04-21T20:46:01.388Z,2.85
2023-04-21T20:48:28.502Z,4.50
2023-04-21T20:50:55.777Z,2.80
2023-04-21T20:53:22.875Z,2.13
2023-04-21T20:55:49.959Z,1.90
2023-04-21T20:58:17.300Z,2.55
2023-04-21T21:00:44.350Z,2.92
2023-04-21T21:03:13.739Z,2.85
2023-04-21T21:05:41.370Z,2.95
2023-04-21T21:08:09.028Z,4.05
2023-04-21T21:10:36.408Z,2.30
2023-04-21T21:13:03.768Z,3.33
2023-04-21T21:15:30.949Z,2.30
2023-04-21T21:17:58.242Z,6.50
2023-04-21T21:20:25.434Z,3.83
2023-04-21T21:22:52.536Z,5.53
2023-04-21T21:25:19.617Z,4.18
2023-04-21T21:27:47.018Z,3.13
2023-04-21T21:30:14.151Z,4.28
2023-04-21T21:32:41.232Z,3.53
2023-04-21T21:35:09.449Z,3.92
2023-04-21T21:37:37.166Z,3.42
2023-04-21T21:40:04.374Z,5.40
2023-04-21T21:42:31.388Z,2.15
2023-04-21T21:44:58.460Z,3.10
2023-04-21T21:47:26.075Z,3.15
2023-04-21T21:49:54.990Z,2.80
2023-04-21T21:52:22.271Z,2.67
2023-04-21T21:54:49.346Z,3.70
2023-04-21T21:57:16.784Z,3.10
2023-04-21T21:59:43.861Z,5.07
2023-04-21T22:02:11.001Z,4.57
2023-04-21T22:04:38.166Z,4.10
2023-04-21T22:07:05.285Z,3.25
2023-04-21T22:09:32.670Z,3.85
2023-04-21T22:11:59.679Z,6.25
2023-04-21T22:14:26.742Z,2.70
2023-04-21T22:16:53.822Z,9.35
2023-04-21T22:19:21.164Z,2.92
2023-04-21T22:21:48.241Z,7.85
2023-04-21T22:24:15.541Z,5.50
2023-04-21T22:26:43.967Z,4.47
2023-04-21T22:29:10.986Z,6.55
2023-04-21T22:31:38.304Z,5.85
2023-04-21T22:34:05.576Z,7.00
2023-04-21T22:36:32.808Z,10.50
2023-04-21T22:38:59.868Z,6.05
2023-04-21T22:41:27.501Z,8.77
2023-04-21T22:43:54.565Z,7.85
2023-04-21T22:46:21.685Z,7.10
2023-04-21T22:48:51.345Z,6.88
2023-04-21T22:51:21.244Z,8.57
2023-04-21T22:53:48.338Z,7.15
2023-04-21T22:56:15.482Z,9.35
2023-04-21T22:58:43.212Z,6.07
2023-04-21T23:01:10.301Z,4.72
2023-04-21T23:03:37.429Z,7.63
2023-04-21T23:06:04.619Z,7.60
2023-04-21T23:08:31.649Z,4.95
2023-04-21T23:10:58.751Z,11.43
2023-04-21T23:13:25.894Z,11.00
2023-04-21T23:15:53.018Z,6.28
2023-04-21T23:18:20.221Z,15.32
2023-04-21T23:20:47.333Z,35.40
2023-04-21T23:23:14.350Z,14.43
2023-04-21T23:25:41.370Z,9.40
2023-04-21T23:28:08.406Z,8.90
2023-04-21T23:30:35.526Z,12.02
2023-04-21T23:33:02.777Z,5.68
2023-04-21T23:35:29.922Z,11.32
2023-04-21T23:37:56.960Z,5.88
2023-04-21T23:40:24.057Z,9.57
2023-04-21T23:42:51.161Z,5.43
2023-04-21T23:45:18.260Z,9.77
2023-04-21T23:47:45.787Z,7.03
2023-04-21T23:50:12.993Z,5.55
2023-04-21T23:52:42.105Z,6.30
2023-04-21T23:55:10.250Z,6.72
2023-04-21T23:57:38.099Z,9.00
